Time;durP1;ratioP1;P1;durP2;ratioP2;P2;SDS_P1;SDS_P2;PMS_P1;PMS_P2;Temp;Humidity;BMP_temperature;BMP_pressure;BME280_temperature;BME280_humidity;BME280_pressure;Samples;Min_cycle;Max_cycle;Signal;HPM_P1;HPM_P2
2022/10/02 00:02:04;;;;;;;30.42;5.35;;;;;;;12.48;100.00;101368.22;5343392;27;20134;-82
2022/10/02 00:04:46;;;;;;;27.65;6.35;;;;;;;12.46;100.00;101362.19;5342770;27;20039;-82
2022/10/02 00:07:19;;;;;;;25.27;4.75;;;;;;;12.52;100.00;101371.47;5320040;27;20098;-83
2022/10/02 00:09:56;;;;;;;25.23;5.13;;;;;;;12.53;100.00;101370.47;5340176;27;21185;-82
2022/10/02 00:12:29;;;;;;;35.83;6.65;;;;;;;12.55;100.00;101376.53;5339300;27;20028;-82
2022/10/02 00:15:11;;;;;;;25.48;5.85;;;;;;;12.58;100.00;101376.22;5342136;27;20672;-82
2022/10/02 00:17:47;;;;;;;37.55;5.38;;;;;;;12.63;100.00;101382.00;5342508;27;20028;-81
2022/10/02 00:20:25;;;;;;;23.27;4.82;;;;;;;12.63;100.00;101376.66;5338030;27;20126;-82
2022/10/02 00:23:10;;;;;;;30.42;5.38;;;;;;;12.60;100.00;101378.78;5342754;27;20152;-81
2022/10/02 00:25:57;;;;;;;28.55;6.07;;;;;;;12.62;100.00;101384.81;5343733;27;20489;-82
2022/10/02 00:28:37;;;;;;;27.52;4.82;;;;;;;12.59;100.00;101388.63;5343064;27;20459;-82
2022/10/02 00:31:32;;;;;;;26.67;5.63;;;;;;;12.61;100.00;101385.81;5340511;27;20394;-82
2022/10/02 00:34:38;;;;;;;25.67;5.05;;;;;;;12.58;100.00;101397.63;5340748;27;20110;-82
2022/10/02 00:37:28;;;;;;;35.47;7.05;;;;;;;12.61;100.00;101400.03;5337361;27;20039;-82
2022/10/02 00:40:37;;;;;;;28.85;5.32;;;;;;;12.60;100.00;101403.69;5340586;27;20082;-82
2022/10/02 00:43:10;;;;;;;24.80;4.88;;;;;;;12.57;100.00;101403.13;5342394;27;20038;-82
2022/10/02 00:46:05;;;;;;;32.63;6.13;;;;;;;12.47;100.00;101408.50;5340728;27;20046;-82
2022/10/02 00:48:48;;;;;;;24.33;5.30;;;;;;;12.55;100.00;101405.97;5339865;27;20190;-82
2022/10/02 00:51:41;;;;;;;29.98;6.47;;;;;;;12.62;100.00;101408.91;5342344;27;20027;-82
2022/10/02 00:54:18;;;;;;;28.90;5.22;;;;;;;12.56;100.00;101404.13;5323611;27;20031;-82
2022/10/02 00:57:04;;;;;;;29.42;4.90;;;;;;;12.57;100.00;101395.97;5343376;27;20024;-82
2022/10/02 01:00:00;;;;;;;25.48;5.38;;;;;;;12.59;100.00;101396.66;5342083;27;20058;-82
2022/10/02 01:02:43;;;;;;;29.00;5.70;;;;;;;12.70;100.00;101403.69;5344001;27;20055;-82
2022/10/02 01:05:15;;;;;;;25.20;5.60;;;;;;;12.67;100.00;101398.63;5324764;27;20047;-82
2022/10/02 01:07:49;;;;;;;35.22;6.50;;;;;;;12.57;100.00;101397.78;5343461;27;20024;-82
2022/10/02 01:10:24;;;;;;;32.78;5.75;;;;;;;12.68;100.00;101411.03;5340542;27;20385;-82
2022/10/02 01:12:56;;;;;;;28.33;5.82;;;;;;;12.68;100.00;101408.34;5320774;27;20035;-82
2022/10/02 01:15:37;;;;;;;26.80;5.13;;;;;;;12.75;100.00;101416.66;5342981;27;20102;-82
2022/10/02 01:18:13;;;;;;;31.35;5.88;;;;;;;12.78;100.00;101406.50;5339472;27;20019;-82
2022/10/02 01:20:47;;;;;;;33.38;6.43;;;;;;;12.82;100.00;101404.38;5340824;27;20027;-82
2022/10/02 01:23:21;;;;;;;27.05;5.43;;;;;;;12.88;100.00;101401.13;5340560;27;20057;-82
2022/10/02 01:25:53;;;;;;;31.40;6.38;;;;;;;12.82;100.00;101391.00;5321489;27;20073;-82
2022/10/02 01:28:25;;;;;;;34.58;6.65;;;;;;;12.82;100.00;101386.50;5341394;27;20021;-82
2022/10/02 01:31:02;;;;;;;37.90;7.60;;;;;;;12.83;100.00;101390.00;5341313;27;20063;-82
2022/10/02 01:33:36;;;;;;;29.65;6.82;;;;;;;12.90;100.00;101390.28;5340545;27;20461;-83
2022/10/02 01:36:10;;;;;;;28.70;5.50;;;;;;;12.91;100.00;101398.16;5343692;27;20122;-83
2022/10/02 01:38:43;;;;;;;31.75;5.72;;;;;;;12.95;100.00;101396.03;5341176;27;20125;-82
2022/10/02 01:41:14;;;;;;;33.83;5.03;;;;;;;12.99;100.00;101403.66;5339735;27;20089;-82
2022/10/02 01:43:52;;;;;;;30.75;5.82;;;;;;;13.00;100.00;101401.81;5325100;27;20057;-82
2022/10/02 01:46:34;;;;;;;26.95;6.00;;;;;;;12.98;100.00;101406.47;5343299;27;20169;-83
2022/10/02 01:49:25;;;;;;;28.42;5.57;;;;;;;13.05;100.00;101413.78;5341475;27;20398;-83
2022/10/02 01:52:25;;;;;;;32.10;6.00;;;;;;;13.10;100.00;101404.47;5309865;27;20557;-82
2022/10/02 01:55:13;;;;;;;26.02;5.47;;;;;;;13.07;100.00;101405.59;5339167;27;20023;-82
2022/10/02 01:57:58;;;;;;;38.10;6.82;;;;;;;13.10;100.00;101407.16;5341801;27;20042;-82
2022/10/02 02:00:44;;;;;;;33.30;6.25;;;;;;;13.15;100.00;101407.56;5341381;27;20031;-82
2022/10/02 02:03:20;;;;;;;25.52;5.30;;;;;;;13.19;100.00;101408.94;5339515;27;20032;-83
2022/10/02 02:05:59;;;;;;;34.40;5.75;;;;;;;13.20;100.00;101408.81;5323435;27;20040;-83
2022/10/02 02:08:36;;;;;;;40.70;5.90;;;;;;;13.17;100.00;101406.41;5339274;27;20044;-82
2022/10/02 02:11:14;;;;;;;40.90;5.70;;;;;;;13.20;100.00;101406.13;5341551;27;20496;-83
2022/10/02 02:13:49;;;;;;;31.77;5.28;;;;;;;13.21;100.00;101404.28;5323510;27;20427;-83
2022/10/02 02:16:23;;;;;;;28.17;4.82;;;;;;;13.29;100.00;101412.44;5342883;27;20030;-83
2022/10/02 02:18:57;;;;;;;31.55;6.30;;;;;;;13.29;100.00;101400.88;5340741;27;20035;-83
2022/10/02 02:21:38;;;;;;;29.02;5.03;;;;;;;13.23;100.00;101421.06;5339285;27;20123;-83
2022/10/02 02:24:21;;;;;;;26.88;6.07;;;;;;;13.16;100.00;101407.41;5339340;27;20114;-83
2022/10/02 02:26:57;;;;;;;28.30;6.03;;;;;;;13.18;100.00;101410.78;5324299;27;20055;-82
2022/10/02 02:29:33;;;;;;;28.58;6.05;;;;;;;13.24;100.00;101410.19;5335277;27;20517;-83
2022/10/02 02:32:09;;;;;;;23.65;5.28;;;;;;;13.43;100.00;101417.34;5337863;27;20039;-83
2022/10/02 02:34:45;;;;;;;26.58;5.13;;;;;;;13.39;100.00;101415.09;5338841;27;20448;-83
2022/10/02 02:37:20;;;;;;;29.60;6.18;;;;;;;13.34;100.00;101412.03;5335306;27;20058;-83
2022/10/02 02:39:56;;;;;;;26.83;5.53;;;;;;;13.36;100.00;101420.78;5340004;27;20078;-83
2022/10/02 02:42:32;;;;;;;27.90;6.53;;;;;;;13.35;100.00;101408.38;5343783;27;20477;-83
2022/10/02 02:45:10;;;;;;;18.55;4.57;;;;;;;13.24;100.00;101410.19;5337335;27;20032;-83
2022/10/02 02:47:54;;;;;;;18.95;4.05;;;;;;;13.08;100.00;101396.59;5335717;27;20031;-83
2022/10/02 02:50:36;;;;;;;15.35;3.80;;;;;;;13.05;100.00;101416.44;5326785;27;20030;-83
2022/10/02 02:53:23;;;;;;;12.10;3.53;;;;;;;12.95;100.00;101410.25;5347455;27;20035;-83
2022/10/02 02:55:59;;;;;;;15.23;3.38;;;;;;;12.89;100.00;101421.56;5325330;27;20070;-83
2022/10/02 02:58:40;;;;;;;10.60;3.30;;;;;;;12.82;100.00;101431.16;5344302;27;20028;-82
2022/10/02 03:01:11;;;;;;;12.85;3.53;;;;;;;12.79;100.00;101428.75;5311191;27;20282;-83
2022/10/02 03:03:43;;;;;;;14.55;2.58;;;;;;;12.79;100.00;101421.56;5342323;27;20050;-83
2022/10/02 03:06:14;;;;;;;11.30;2.45;;;;;;;12.72;100.00;101430.31;5345357;27;20047;-83
2022/10/02 03:08:49;;;;;;;7.80;2.60;;;;;;;12.72;100.00;101415.09;5342189;27;20028;-83
2022/10/02 03:11:23;;;;;;;7.35;1.98;;;;;;;12.69;100.00;101428.75;5344698;27;20280;-83
2022/10/02 03:14:18;;;;;;;10.73;2.17;;;;;;;12.55;100.00;101427.38;5343229;27;20028;-83
2022/10/02 03:17:02;;;;;;;9.35;2.15;;;;;;;12.57;100.00;101417.38;5342897;27;20031;-83
2022/10/02 03:19:52;;;;;;;8.73;2.33;;;;;;;12.63;100.00;101418.63;5343108;27;20032;-83
2022/10/02 03:22:58;;;;;;;8.93;2.10;;;;;;;12.52;100.00;101419.63;5343269;27;20027;-83
2022/10/02 03:25:41;;;;;;;7.75;2.38;;;;;;;12.52;100.00;101416.94;5343509;27;20481;-83
2022/10/02 03:28:32;;;;;;;9.23;2.25;;;;;;;12.59;100.00;101428.78;5344768;27;20023;-80
2022/10/02 03:31:04;;;;;;;10.15;2.55;;;;;;;12.61;100.00;101420.63;5342694;27;20362;-82
2022/10/02 03:33:36;;;;;;;8.90;2.55;;;;;;;12.60;100.00;101417.06;5346082;27;20487;-82
2022/10/02 03:36:10;;;;;;;9.00;2.60;;;;;;;12.61;100.00;101425.97;5324897;27;20028;-82
2022/10/02 03:38:42;;;;;;;11.18;3.30;;;;;;;12.60;100.00;101424.25;5324253;27;20038;-82
2022/10/02 03:41:14;;;;;;;9.80;3.47;;;;;;;12.52;100.00;101432.13;5343877;27;20062;-82
2022/10/02 03:43:45;;;;;;;8.23;2.85;;;;;;;12.56;100.00;101429.06;5346646;27;20055;-81
2022/10/02 03:46:16;;;;;;;12.57;3.58;;;;;;;12.55;100.00;101454.13;5344409;27;20035;-81
2022/10/02 03:48:47;;;;;;;12.20;3.53;;;;;;;12.64;100.00;101447.06;5343481;27;20037;-82
2022/10/02 03:51:19;;;;;;;17.98;5.63;;;;;;;12.48;100.00;101444.97;5342898;27;23478;-82
2022/10/02 03:53:51;;;;;;;16.35;7.63;;;;;;;12.60;100.00;101446.50;5326823;27;20042;-82
2022/10/02 03:56:50;;;;;;;15.55;6.30;;;;;;;12.67;100.00;101441.44;5344383;27;20400;-83
2022/10/02 03:59:43;;;;;;;19.90;8.77;;;;;;;12.63;100.00;101450.75;5330395;27;20411;-83
2022/10/02 04:02:43;;;;;;;15.77;8.48;;;;;;;12.55;100.00;101446.13;5343836;27;20038;-82
2022/10/02 04:05:25;;;;;;;19.27;9.60;;;;;;;12.52;100.00;101438.34;5333386;27;20069;-83
2022/10/02 04:08:01;;;;;;;18.52;7.75;;;;;;;12.64;100.00;101445.25;5343995;27;20023;-82
2022/10/02 04:10:58;;;;;;;22.77;11.80;;;;;;;12.55;100.00;101446.13;5324745;27;20023;-82
2022/10/02 04:13:40;;;;;;;20.40;9.55;;;;;;;12.63;100.00;101434.69;5340934;27;20051;-83
2022/10/02 04:16:13;;;;;;;24.73;11.32;;;;;;;12.66;100.00;101440.59;5341854;27;20513;-83
2022/10/02 04:19:32;;;;;;;22.10;10.13;;;;;;;12.72;100.00;101446.38;5344891;27;20093;-82
2022/10/02 04:22:15;;;;;;;17.42;8.57;;;;;;;12.71;100.00;101444.69;5342072;27;20058;-82
2022/10/02 04:25:21;;;;;;;22.27;9.70;;;;;;;12.63;100.00;101448.06;5342231;27;20024;-83
2022/10/02 04:27:58;;;;;;;21.42;9.40;;;;;;;12.72;100.00;101449.91;5313001;27;20568;-82
2022/10/02 04:30:29;;;;;;;21.20;9.63;;;;;;;12.72;100.00;101444.53;5347367;27;20019;-83
2022/10/02 04:33:11;;;;;;;22.10;9.57;;;;;;;12.72;100.00;101441.03;5343785;27;20019;-83
2022/10/02 04:35:42;;;;;;;27.63;11.27;;;;;;;12.71;100.00;101440.19;5345190;27;20047;-83
2022/10/02 04:38:13;;;;;;;33.10;11.70;;;;;;;12.66;100.00;101443.28;5336146;27;20054;-83
2022/10/02 04:41:14;;;;;;;25.45;12.75;;;;;;;12.66;100.00;101445.13;5324385;27;20368;-83
2022/10/02 04:44:10;;;;;;;27.88;14.32;;;;;;;12.71;100.00;101460.72;5341785;27;20039;-82
2022/10/02 04:46:50;;;;;;;31.27;15.93;;;;;;;12.77;100.00;101468.22;5344125;27;20036;-83
2022/10/02 04:49:46;;;;;;;40.78;17.70;;;;;;;12.82;100.00;101477.50;5344624;27;20038;-82
2022/10/02 04:52:45;;;;;;;42.63;20.25;;;;;;;12.82;100.00;101471.31;5345674;27;20604;-84
2022/10/02 04:55:33;;;;;;;42.10;22.10;;;;;;;12.81;100.00;101472.28;5349309;27;20035;-82
2022/10/02 04:58:17;;;;;;;37.65;22.70;;;;;;;12.84;100.00;101477.38;5356612;27;20819;-82
2022/10/02 05:00:59;;;;;;;42.90;23.23;;;;;;;12.81;100.00;101483.84;5349661;27;20012;-82
2022/10/02 05:03:44;;;;;;;45.33;21.35;;;;;;;12.76;100.00;101472.72;5335672;27;20145;-83
2022/10/02 05:06:43;;;;;;;49.40;20.77;;;;;;;12.75;100.00;101471.03;5341906;27;20394;-83
2022/10/02 05:09:20;;;;;;;45.83;21.73;;;;;;;12.74;100.00;101469.31;5319219;27;20036;-84
2022/10/02 05:12:39;;;;;;;45.90;22.27;;;;;;;12.78;100.00;101485.94;5343260;27;20056;-83
2022/10/02 05:15:39;;;;;;;43.25;21.50;;;;;;;12.80;100.00;101479.47;5338764;27;20047;-83
2022/10/02 05:18:35;;;;;;;51.00;24.58;;;;;;;12.87;100.00;101487.81;5340040;27;20050;-83
2022/10/02 05:21:15;;;;;;;50.42;24.98;;;;;;;12.86;100.00;101470.88;5322138;27;20101;-83
2022/10/02 05:24:11;;;;;;;44.17;26.55;;;;;;;12.87;100.00;101487.81;5341478;27;20063;-83
2022/10/02 05:26:54;;;;;;;48.67;23.83;;;;;;;12.86;100.00;101497.66;5343621;27;20035;-83
2022/10/02 05:29:41;;;;;;;48.83;24.38;;;;;;;12.86;100.00;101494.13;5341709;27;20034;-83
2022/10/02 05:32:21;;;;;;;43.83;22.47;;;;;;;12.99;100.00;101504.53;5345316;27;20059;-83
2022/10/02 05:35:03;;;;;;;51.78;22.65;;;;;;;13.00;100.00;101499.03;5344849;27;20311;-83
2022/10/02 05:37:48;;;;;;;47.78;20.48;;;;;;;13.00;100.00;101506.25;5342229;27;20027;-82
2022/10/02 05:40:40;;;;;;;44.53;21.33;;;;;;;12.97;100.00;101506.53;5342329;27;20031;-83
2022/10/02 05:43:26;;;;;;;46.53;19.63;;;;;;;13.01;100.00;101510.63;5324809;27;20032;-83
2022/10/02 05:46:04;;;;;;;40.35;17.55;;;;;;;13.10;100.00;101522.31;5340485;27;20050;-83
2022/10/02 05:48:52;;;;;;;39.33;15.95;;;;;;;13.09;100.00;101512.59;5344726;27;20047;-82
2022/10/02 05:51:50;;;;;;;35.78;15.13;;;;;;;13.10;100.00;101508.94;5346529;27;20019;-82
2022/10/02 05:54:52;;;;;;;39.85;14.05;;;;;;;13.11;100.00;101511.44;5345289;27;20469;-82
2022/10/02 05:57:34;;;;;;;31.00;11.80;;;;;;;13.22;100.00;101511.28;5348945;27;20417;-83
2022/10/02 06:00:22;;;;;;;33.35;12.43;;;;;;;13.20;100.00;101520.44;5348042;27;20035;-83
2022/10/02 06:03:18;;;;;;;26.95;10.45;;;;;;;13.23;100.00;101507.59;5347474;27;20027;-82
2022/10/02 06:05:59;;;;;;;32.92;10.05;;;;;;;13.18;100.00;101519.75;5344165;27;20767;-82
2022/10/02 06:08:39;;;;;;;40.50;11.45;;;;;;;13.19;100.00;101510.75;5345841;27;21675;-82
2022/10/02 06:11:20;;;;;;;44.75;10.98;;;;;;;13.11;100.00;101511.44;5344346;27;20469;-83
2022/10/02 06:14:09;;;;;;;36.05;9.90;;;;;;;13.23;100.00;101528.22;5341361;27;20523;-83
2022/10/02 06:16:51;;;;;;;29.05;8.10;;;;;;;13.31;100.00;101532.88;5340028;27;20392;-82
2022/10/02 06:19:29;;;;;;;31.55;8.65;;;;;;;13.30;100.00;101541.88;5342400;27;20024;-82
2022/10/02 06:22:11;;;;;;;28.92;8.35;;;;;;;13.29;100.00;101534.81;5341996;27;20032;-82
2022/10/02 06:24:56;;;;;;;35.05;8.65;;;;;;;13.24;100.00;101544.13;5341580;27;21913;-83
2022/10/02 06:27:54;;;;;;;39.28;8.98;;;;;;;13.27;100.00;101547.53;5342616;27;20027;-83
2022/10/02 06:30:29;;;;;;;36.95;7.72;;;;;;;13.27;100.00;101547.53;5332362;27;20094;-82
2022/10/02 06:33:15;;;;;;;31.27;7.80;;;;;;;13.30;100.00;101545.41;5338182;27;20036;-82
2022/10/02 06:35:58;;;;;;;35.30;9.00;;;;;;;13.30;100.00;101549.91;5343158;27;20381;-82
2022/10/02 06:38:51;;;;;;;33.05;9.20;;;;;;;13.27;100.00;101540.34;5341822;27;20050;-83
2022/10/02 06:42:10;;;;;;;41.00;9.52;;;;;;;13.35;100.00;101555.72;5339330;27;20386;-83
2022/10/02 06:45:18;;;;;;;32.92;8.98;;;;;;;13.44;100.00;101560.22;5334924;27;20493;-82
2022/10/02 06:48:04;;;;;;;36.17;9.88;;;;;;;13.55;100.00;101564.56;5339463;27;20471;-83
2022/10/02 06:50:35;;;;;;;28.53;9.53;;;;;;;13.48;100.00;101566.13;5338590;27;20030;-83
2022/10/02 06:53:31;;;;;;;24.40;9.27;;;;;;;13.55;100.00;101569.94;5337505;27;20391;-83
2022/10/02 06:56:30;;;;;;;30.83;9.75;;;;;;;13.49;100.00;101579.41;5347806;27;20088;-83
2022/10/02 06:59:20;;;;;;;27.80;10.23;;;;;;;13.61;100.00;101585.44;5344235;27;20032;-83
2022/10/02 07:02:19;;;;;;;31.67;9.45;;;;;;;13.65;100.00;101589.53;5328004;27;20022;-84
2022/10/02 07:05:08;;;;;;;37.88;10.45;;;;;;;13.56;100.00;101599.28;5324858;27;20036;-83
2022/10/02 07:07:54;;;;;;;28.20;9.43;;;;;;;13.66;100.00;101599.25;5324739;27;20413;-84
2022/10/02 07:10:51;;;;;;;27.13;9.88;;;;;;;13.68;100.00;101599.13;5338020;27;20061;-83
2022/10/02 07:13:36;;;;;;;32.55;11.98;;;;;;;13.58;100.00;101594.59;5320504;27;20046;-84
2022/10/02 07:16:38;;;;;;;31.92;13.50;;;;;;;13.57;100.00;101598.28;5341718;27;20354;-83
2022/10/02 07:19:29;;;;;;;32.80;14.25;;;;;;;13.56;100.00;101601.13;5325127;27;20031;-84
2022/10/02 07:22:22;;;;;;;39.70;16.33;;;;;;;13.54;100.00;101600.41;5325320;27;20020;-83
2022/10/02 07:25:13;;;;;;;36.88;18.27;;;;;;;13.53;100.00;101590.66;5318532;27;20028;-83
2022/10/02 07:28:17;;;;;;;30.08;16.90;;;;;;;13.58;100.00;101602.66;5339183;27;20024;-84
2022/10/02 07:31:06;;;;;;;35.78;19.95;;;;;;;13.52;100.00;101597.88;5347702;27;20077;-83
2022/10/02 07:34:02;;;;;;;31.90;19.80;;;;;;;13.53;100.00;101604.91;5340963;27;20107;-84
2022/10/02 07:36:42;;;;;;;30.58;17.55;;;;;;;13.56;100.00;101601.94;5341840;27;20028;-83
2022/10/02 07:39:41;;;;;;;30.83;18.92;;;;;;;13.57;100.00;101608.19;5335252;27;20023;-84
2022/10/02 07:42:32;;;;;;;31.10;17.90;;;;;;;13.66;100.00;101611.84;5348199;27;20534;-83
2022/10/02 07:45:33;;;;;;;31.42;15.50;;;;;;;13.70;100.00;101614.06;5330305;27;20081;-84
2022/10/02 07:48:21;;;;;;;27.95;15.90;;;;;;;13.70;100.00;101610.53;5340590;27;20036;-83
2022/10/02 07:51:00;;;;;;;27.35;15.32;;;;;;;13.75;100.00;101619.00;5328195;28;20032;-84
2022/10/02 07:53:50;;;;;;;26.17;13.98;;;;;;;13.72;100.00;101603.19;5333592;27;20051;-83
2022/10/02 07:56:22;;;;;;;24.98;13.45;;;;;;;13.89;100.00;101606.97;5345031;27;20027;-84
2022/10/02 07:58:58;;;;;;;24.90;13.80;;;;;;;13.98;100.00;101616.81;5323584;28;20025;-84
2022/10/02 08:01:35;;;;;;;24.35;13.50;;;;;;;14.12;100.00;101612.81;5324281;27;20031;-84
2022/10/02 08:04:24;;;;;;;23.83;13.85;;;;;;;14.36;100.00;101625.72;5326228;27;20056;-84
2022/10/02 08:07:01;;;;;;;21.88;13.48;;;;;;;14.54;100.00;101629.28;5336670;27;20409;-84
2022/10/02 08:09:48;;;;;;;25.80;12.93;;;;;;;14.78;100.00;101630.63;5343517;27;20032;-84
2022/10/02 08:12:40;;;;;;;20.80;11.77;;;;;;;15.00;100.00;101639.22;5343866;27;20096;-84
2022/10/02 08:15:16;;;;;;;23.23;10.68;;;;;;;14.85;100.00;101629.03;5323714;27;20015;-84
2022/10/02 08:17:49;;;;;;;22.50;11.20;;;;;;;14.97;100.00;101650.28;5344715;27;20019;-84
2022/10/02 08:20:23;;;;;;;20.27;10.68;;;;;;;14.97;100.00;101651.16;5342664;27;20432;-84
2022/10/02 08:23:25;;;;;;;18.52;10.82;;;;;;;15.12;100.00;101652.28;5344053;27;20114;-84
2022/10/02 08:26:18;;;;;;;19.45;12.00;;;;;;;15.20;100.00;101648.84;5302675;27;20039;-84
2022/10/02 08:29:00;;;;;;;15.02;10.88;;;;;;;15.33;100.00;101661.91;5339169;27;20382;-84
2022/10/02 08:31:31;;;;;;;16.40;10.77;;;;;;;15.20;100.00;101659.59;5334390;27;20020;-84
2022/10/02 08:34:17;;;;;;;15.77;10.02;;;;;;;15.18;100.00;101644.63;5343706;27;20376;-84
2022/10/02 08:37:22;;;;;;;18.58;10.27;;;;;;;15.39;100.00;101647.84;5343754;27;20015;-84
2022/10/02 08:40:27;;;;;;;17.45;10.10;;;;;;;15.49;100.00;101663.88;5317535;27;20036;-84
2022/10/02 08:43:47;;;;;;;15.23;9.63;;;;;;;15.55;100.00;101671.34;5338116;27;20035;-83
2022/10/02 08:46:25;;;;;;;14.85;9.30;;;;;;;15.44;100.00;101672.41;5324561;27;20047;-83
2022/10/02 08:48:57;;;;;;;13.90;8.00;;;;;;;15.60;100.00;101678.94;5345214;27;20370;-84
2022/10/02 08:51:38;;;;;;;18.20;9.73;;;;;;;15.70;100.00;101683.22;5348119;27;20469;-84
2022/10/02 08:54:27;;;;;;;15.15;8.15;;;;;;;15.74;100.00;101675.69;5345453;27;20032;-83
2022/10/02 08:57:32;;;;;;;19.55;8.82;;;;;;;15.95;100.00;101672.66;5320435;27;20032;-84
2022/10/02 09:00:09;;;;;;;17.15;8.27;;;;;;;16.15;100.00;101685.94;5339734;27;20111;-84
2022/10/02 09:03:18;;;;;;;17.33;7.32;;;;;;;16.06;100.00;101682.34;5326532;27;20051;-84
2022/10/02 09:06:20;;;;;;;13.95;6.65;;;;;;;15.68;100.00;101682.53;5343488;27;20089;-84
2022/10/02 09:09:29;;;;;;;14.48;6.63;;;;;;;15.82;100.00;101691.91;5341651;27;20031;-83
2022/10/02 09:12:26;;;;;;;14.45;6.53;;;;;;;15.84;100.00;101695.28;5340749;27;20036;-83
2022/10/02 09:15:08;;;;;;;18.90;7.60;;;;;;;15.76;100.00;101691.69;5323906;27;20099;-83
2022/10/02 09:17:58;;;;;;;15.25;5.75;;;;;;;15.75;100.00;101685.47;5345087;27;20069;-84
2022/10/02 09:20:55;;;;;;;21.23;6.88;;;;;;;16.19;100.00;101696.22;5343421;27;20073;-83
2022/10/02 09:23:55;;;;;;;15.38;5.10;;;;;;;16.87;100.00;101702.66;5349693;27;20126;-84
2022/10/02 09:26:50;;;;;;;16.52;5.15;;;;;;;17.30;100.00;101684.56;5344522;27;20032;-84
2022/10/02 09:30:10;;;;;;;14.52;4.88;;;;;;;17.82;100.00;101686.09;5345147;27;20385;-84
2022/10/02 09:33:19;;;;;;;11.25;4.38;;;;;;;17.66;100.00;101689.66;5337748;27;20030;-83
2022/10/02 09:36:02;;;;;;;11.52;4.05;;;;;;;17.49;100.00;101685.25;5343413;27;20657;-83
2022/10/02 09:38:47;;;;;;;17.42;4.53;;;;;;;17.47;100.00;101693.50;5327410;27;20024;-83
2022/10/02 09:41:48;;;;;;;12.95;3.92;;;;;;;17.50;100.00;101703.97;5339796;27;29616;-83
2022/10/02 09:44:34;;;;;;;16.92;4.80;;;;;;;17.54;100.00;101708.00;5297020;27;20039;-83
2022/10/02 09:47:26;;;;;;;19.52;4.85;;;;;;;18.02;100.00;101704.66;5334409;27;21689;-83
2022/10/02 09:50:11;;;;;;;14.93;4.25;;;;;;;18.10;100.00;101694.69;5339456;27;20031;-83
2022/10/02 09:53:08;;;;;;;14.73;4.20;;;;;;;18.21;100.00;101704.28;5337906;27;20035;-83
2022/10/02 09:55:51;;;;;;;14.45;4.18;;;;;;;18.21;100.00;101707.00;5335361;27;20016;-83
2022/10/02 09:58:42;;;;;;;15.98;4.10;;;;;;;18.14;100.00;101703.28;5320054;27;20557;-83
2022/10/02 10:01:42;;;;;;;13.88;4.15;;;;;;;18.01;100.00;101703.00;5339474;27;20034;-83
2022/10/02 10:04:31;;;;;;;12.75;4.30;;;;;;;18.59;100.00;101715.34;5318994;27;20047;-83
2022/10/02 10:07:16;;;;;;;10.35;3.63;;;;;;;19.51;100.00;101705.75;5338364;27;20053;-83
2022/10/02 10:09:56;;;;;;;13.23;4.15;;;;;;;20.33;100.00;101705.84;5336686;27;20162;-84
2022/10/02 10:12:27;;;;;;;16.77;5.38;;;;;;;21.73;100.00;101717.56;5333471;27;20486;-83
2022/10/02 10:15:39;;;;;;;13.50;3.70;;;;;;;21.61;100.00;101717.25;5313708;27;20126;-84
2022/10/02 10:18:40;;;;;;;14.95;3.42;;;;;;;21.80;100.00;101707.63;5335858;27;20042;-84
2022/10/02 10:21:32;;;;;;;12.70;3.50;;;;;;;21.89;100.00;101725.44;5320332;27;20023;-84
2022/10/02 10:24:42;;;;;;;11.85;3.28;;;;;;;22.68;100.00;101723.50;5335992;27;20032;-84
2022/10/02 10:27:46;;;;;;;12.10;3.55;;;;;;;21.92;100.00;101721.50;5336014;27;20071;-84
2022/10/02 10:30:43;;;;;;;15.15;3.63;;;;;;;21.81;100.00;101735.59;5339163;27;20393;-84
2022/10/02 10:33:45;;;;;;;12.02;3.42;;;;;;;22.67;100.00;101738.16;5336850;27;20027;-85
2022/10/02 10:39:48;;;;;;;8.88;3.13;;;;;;;22.63;100.00;101759.47;5332056;27;20055;-84
2022/10/02 10:42:32;;;;;;;15.75;3.55;;;;;;;21.63;100.00;101755.06;5302961;27;20040;-83
2022/10/02 10:45:35;;;;;;;12.60;3.53;;;;;;;20.84;100.00;101750.38;5339629;27;20430;-83
2022/10/02 10:48:14;;;;;;;15.38;3.55;;;;;;;20.62;100.00;101754.84;5338361;27;20330;-83
2022/10/02 10:51:15;;;;;;;15.93;3.70;;;;;;;20.60;100.00;101746.91;5317667;27;20035;-84
2022/10/02 10:54:07;;;;;;;13.63;3.70;;;;;;;20.38;100.00;101765.75;5333633;27;20084;-84
2022/10/02 10:56:48;;;;;;;14.35;3.55;;;;;;;20.26;100.00;101759.09;5335964;27;20038;-83
2022/10/02 10:59:41;;;;;;;14.52;3.15;;;;;;;20.30;100.00;101757.72;5321408;27;20120;-83
2022/10/02 11:02:37;;;;;;;15.98;4.55;;;;;;;20.69;100.00;101748.53;5336542;27;20031;-83
2022/10/02 11:05:16;;;;;;;9.95;3.55;;;;;;;20.17;100.00;101762.91;5320005;27;20047;-83
2022/10/02 11:08:29;;;;;;;14.35;3.88;;;;;;;19.81;100.00;101744.59;5338630;27;20027;-83
2022/10/02 11:11:12;;;;;;;13.80;3.10;;;;;;;19.38;100.00;101741.53;5334899;27;20055;-83
2022/10/02 11:14:19;;;;;;;14.85;4.35;;;;;;;19.71;100.00;101752.13;5340326;27;20093;-83
2022/10/02 11:17:12;;;;;;;14.00;3.63;;;;;;;19.95;100.00;101753.78;5333968;27;20024;-83
2022/10/02 11:19:55;;;;;;;13.63;3.00;;;;;;;19.80;100.00;101751.88;5338732;27;20063;-82
2022/10/02 11:22:43;;;;;;;13.43;3.45;;;;;;;20.61;100.00;101754.00;5318015;27;20035;-83
2022/10/02 11:25:46;;;;;;;10.50;2.97;;;;;;;21.40;100.00;101752.50;5340525;27;20054;-83
2022/10/02 11:28:27;;;;;;;11.32;3.60;;;;;;;20.63;100.00;101762.81;5339981;27;20031;-83
2022/10/02 11:30:58;;;;;;;13.95;3.70;;;;;;;20.10;100.00;101767.38;5342974;27;20112;-82
2022/10/02 11:34:07;;;;;;;11.95;2.85;;;;;;;19.77;100.00;101773.91;5322652;27;20051;-81
2022/10/02 11:36:44;;;;;;;14.88;3.83;;;;;;;19.60;100.00;101769.59;5343495;27;20059;-83
2022/10/02 11:40:01;;;;;;;12.43;3.67;;;;;;;20.01;100.00;101774.75;5344225;27;20538;-83
2022/10/02 11:42:44;;;;;;;11.73;3.83;;;;;;;19.63;100.00;101782.78;5343592;27;20031;-83
2022/10/02 11:45:31;;;;;;;17.65;3.80;;;;;;;19.59;100.00;101774.16;5322798;27;20497;-83
2022/10/02 11:48:51;;;;;;;14.13;3.78;;;;;;;19.87;100.00;101781.78;5322573;27;20059;-82
2022/10/02 11:52:09;;;;;;;11.43;3.30;;;;;;;20.77;100.00;101778.25;5254434;28;20032;-82
2022/10/02 11:54:47;;;;;;;15.30;4.00;;;;;;;21.53;100.00;101779.84;5244188;28;20041;-82
2022/10/02 11:57:37;;;;;;;12.88;3.45;;;;;;;23.53;100.00;101781.19;5320011;27;20039;-82
2022/10/02 12:00:14;;;;;;;11.73;3.65;;;;;;;23.16;100.00;101777.94;5344617;27;20028;-82
2022/10/02 12:02:46;;;;;;;13.05;3.67;;;;;;;22.52;100.00;101778.19;5343229;27;20118;-82
2022/10/02 12:05:41;;;;;;;14.63;4.10;;;;;;;21.54;100.00;101778.78;5342209;27;20450;-82
2022/10/02 12:08:33;;;;;;;14.95;4.10;;;;;;;20.65;100.00;101777.03;5338716;27;20046;-82
2022/10/02 12:11:31;;;;;;;14.70;4.43;;;;;;;19.87;100.00;101783.66;5341442;27;20108;-82
2022/10/02 12:14:24;;;;;;;17.92;4.72;;;;;;;19.20;100.00;101790.47;5337086;27;20117;-83
2022/10/02 12:17:05;;;;;;;21.45;5.68;;;;;;;18.17;100.00;101818.22;5336307;27;20381;-84
2022/10/02 12:29:44;;;;;;;15.38;5.75;;;;;;;16.03;100.00;101812.66;5343017;27;20401;-83
2022/10/02 12:32:37;;;;;;;18.10;6.72;;;;;;;16.24;100.00;101820.41;5343925;27;20031;-84
2022/10/02 12:35:18;;;;;;;16.65;6.05;;;;;;;16.37;100.00;101825.38;5344212;27;20377;-83
2022/10/02 12:38:04;;;;;;;14.48;6.00;;;;;;;16.63;100.00;101821.88;5325627;27;20112;-83
2022/10/02 12:41:06;;;;;;;14.67;5.73;;;;;;;17.70;100.00;101816.94;5345482;27;20028;-83
2022/10/02 12:43:54;;;;;;;18.33;5.00;;;;;;;19.21;100.00;101816.47;5347258;27;20386;-84
2022/10/02 12:47:11;;;;;;;10.65;4.28;;;;;;;20.18;100.00;101816.09;5338964;27;20042;-83
2022/10/02 12:50:07;;;;;;;9.48;4.35;;;;;;;21.58;100.00;101812.66;5336715;27;20111;-83